IBE07YL EDDH-LEMD
Flight info
| Callsign | IBE07YL |
|---|---|
| Flight time | N/A |
| Altitude | 36000 |
| Route | WSN5G/33 WSN N125 ITMIZ DCT CIV/N0446F370 DCT KOVIN DCT DUCRA UM728 RESMI DCT DEKOD UN857 DISAK DCT ARKIP DCT ARNAV DCT LMG DCT UVELI DCT OSMOB DCT VAVIX DCT NETUK N857 ALEPO DCT VASUM N857 BANEV |
| Aircraft | A320/M-SDE3FGHIRWY/LB1 |
Departure
| Time | 2026-04-24 15:15 |
|---|---|
| Airport | Hamburg Helmut Schmidt Airport (EDDH) |
Arrival
| Time | N/A |
|---|---|
| Airport | Adolfo Suárez Madrid–Barajas Airport (LEMD) |
| Time | Latitude | Longitude | Altitude | Speed | Heading |
|---|---|---|---|---|---|
| 2026-04-24 14:26 | 53.63074 | 10.00379 | 49 ft | 0 kts | 93° |
| 2026-04-24 15:06 | 53.63074 | 10.00378 | 48 ft | 0 kts | 93° |
| 2026-04-24 15:06 | 53.63075 | 10.00341 | 48 ft | 4 kts | 93° |
| 2026-04-24 15:06 | 53.63076 | 10.00296 | 48 ft | 4 kts | 93° |
| 2026-04-24 15:06 | 53.63078 | 10.00254 | 48 ft | 1 kts | 93° |
| 2026-04-24 15:07 | 53.63081 | 10.00216 | 48 ft | 4 kts | 119° |
| 2026-04-24 15:07 | 53.63098 | 10.00194 | 47 ft | 3 kts | 175° |
| 2026-04-24 15:07 | 53.63115 | 10.00192 | 48 ft | 0 kts | 176° |
| 2026-04-24 15:10 | 53.63108 | 10.00192 | 48 ft | 2 kts | 176° |
| 2026-04-24 15:11 | 53.63087 | 10.00195 | 48 ft | 3 kts | 176° |
| 2026-04-24 15:11 | 53.63073 | 10.00190 | 48 ft | 1 kts | 195° |
| 2026-04-24 15:11 | 53.63052 | 10.00166 | 48 ft | 4 kts | 212° |
| 2026-04-24 15:11 | 53.63030 | 10.00143 | 48 ft | 3 kts | 212° |
| 2026-04-24 15:12 | 53.63016 | 10.00128 | 48 ft | 4 kts | 213° |
| 2026-04-24 15:12 | 53.62967 | 10.00075 | 46 ft | 3 kts | 212° |
| 2026-04-24 15:12 | 53.62956 | 10.00063 | 48 ft | 1 kts | 212° |
| 2026-04-24 15:13 | 53.62941 | 10.00045 | 48 ft | 5 kts | 220° |
| 2026-04-24 15:13 | 53.62922 | 9.99997 | 46 ft | 5 kts | 242° |
| 2026-04-24 15:13 | 53.62898 | 9.99921 | 46 ft | 11 kts | 242° |
| 2026-04-24 15:13 | 53.62860 | 9.99795 | 43 ft | 8 kts | 243° |
| 2026-04-24 15:14 | 53.62881 | 9.99732 | 44 ft | 8 kts | 335° |
| 2026-04-24 15:14 | 53.62982 | 9.99646 | 45 ft | 40 kts | 332° |
| 2026-04-24 15:14 | 53.63442 | 9.99247 | 47 ft | 105 kts | 333° |
| 2026-04-24 15:14 | 53.64257 | 9.98539 | 55 ft | 156 kts | 332° |
| 2026-04-24 15:15 | 53.65254 | 9.97687 | 588 ft | 158 kts | 329° |
| 2026-04-24 15:15 | 53.66223 | 9.96852 | 1390 ft | 155 kts | 328° |
| 2026-04-24 15:15 | 53.67189 | 9.96029 | 2135 ft | 155 kts | 329° |
| 2026-04-24 15:15 | 53.68145 | 9.95208 | 2818 ft | 154 kts | 331° |
| 2026-04-24 15:16 | 53.69101 | 9.94390 | 3443 ft | 154 kts | 331° |
| 2026-04-24 15:16 | 53.70122 | 9.93514 | 3710 ft | 176 kts | 331° |
| 2026-04-24 15:16 | 53.71191 | 9.92289 | 4001 ft | 196 kts | 309° |
| 2026-04-24 15:16 | 53.71591 | 9.90025 | 4436 ft | 218 kts | 269° |
| 2026-04-24 15:17 | 53.71253 | 9.87377 | 4778 ft | 244 kts | 259° |
| 2026-04-24 15:17 | 53.70712 | 9.84512 | 5245 ft | 265 kts | 256° |
| 2026-04-24 15:17 | 53.70077 | 9.81545 | 6011 ft | 272 kts | 255° |
| 2026-04-24 15:17 | 53.69402 | 9.78527 | 6825 ft | 277 kts | 255° |
| 2026-04-24 15:18 | 53.68600 | 9.75538 | 7600 ft | 284 kts | 248° |
| 2026-04-24 15:18 | 53.67655 | 9.72580 | 8429 ft | 289 kts | 246° |
| 2026-04-24 15:18 | 53.66656 | 9.69630 | 9311 ft | 290 kts | 245° |
| 2026-04-24 15:18 | 53.65643 | 9.66670 | 10155 ft | 293 kts | 246° |
| 2026-04-24 15:19 | 53.64629 | 9.63682 | 10674 ft | 307 kts | 245° |
| 2026-04-24 15:19 | 53.63546 | 9.60421 | 10883 ft | 330 kts | 245° |
| 2026-04-24 15:19 | 53.62401 | 9.56935 | 11195 ft | 349 kts | 245° |
| 2026-04-24 15:19 | 53.61216 | 9.53331 | 11816 ft | 354 kts | 245° |
| 2026-04-24 15:20 | 53.60016 | 9.49689 | 12496 ft | 358 kts | 244° |
| 2026-04-24 15:20 | 53.58800 | 9.46011 | 13200 ft | 361 kts | 244° |
| 2026-04-24 15:20 | 53.57570 | 9.42301 | 13908 ft | 365 kts | 244° |
| 2026-04-24 15:20 | 53.56327 | 9.38556 | 14549 ft | 367 kts | 244° |
| 2026-04-24 15:21 | 53.55075 | 9.34791 | 15195 ft | 370 kts | 244° |
| 2026-04-24 15:21 | 53.53821 | 9.31018 | 15868 ft | 371 kts | 244° |
| 2026-04-24 15:21 | 53.52561 | 9.27225 | 16498 ft | 373 kts | 244° |
| 2026-04-24 15:21 | 53.51292 | 9.23402 | 17136 ft | 375 kts | 244° |
| 2026-04-24 15:22 | 53.50021 | 9.19567 | 17768 ft | 377 kts | 244° |
| 2026-04-24 15:22 | 53.48739 | 9.15709 | 18397 ft | 380 kts | 243° |
| 2026-04-24 15:22 | 53.47883 | 9.13137 | 18755 ft | 381 kts | 243° |
| 2026-04-24 15:23 | 53.45295 | 9.05314 | 19862 ft | 384 kts | 247° |
| 2026-04-24 15:23 | 53.43263 | 8.97014 | 20973 ft | 386 kts | 251° |
| 2026-04-24 15:23 | 53.42270 | 8.92804 | 21508 ft | 388 kts | 251° |
| 2026-04-24 15:24 | 53.39259 | 8.80084 | 23000 ft | 395 kts | 250° |
| 2026-04-24 15:25 | 53.37158 | 8.71534 | 23928 ft | 399 kts | 249° |
| 2026-04-24 15:25 | 53.35017 | 8.62993 | 24697 ft | 402 kts | 249° |
| 2026-04-24 15:26 | 53.31778 | 8.49980 | 25815 ft | 406 kts | 249° |
| 2026-04-24 15:27 | 53.28497 | 8.36837 | 26884 ft | 410 kts | 249° |
| 2026-04-24 15:27 | 53.25164 | 8.23579 | 27890 ft | 415 kts | 248° |
| 2026-04-24 15:28 | 53.20638 | 8.05747 | 29118 ft | 419 kts | 248° |
| 2026-04-24 15:29 | 53.18368 | 7.96755 | 29673 ft | 422 kts | 248° |
| 2026-04-24 15:30 | 53.14936 | 7.83213 | 30528 ft | 422 kts | 248° |
| 2026-04-24 15:31 | 53.09982 | 7.65718 | 31795 ft | 417 kts | 235° |
| 2026-04-24 15:32 | 53.01972 | 7.52047 | 33099 ft | 411 kts | 227° |
| 2026-04-24 15:33 | 52.93841 | 7.38810 | 34234 ft | 407 kts | 227° |
| 2026-04-24 15:33 | 52.87772 | 7.28988 | 34924 ft | 407 kts | 227° |
| 2026-04-24 15:34 | 52.83725 | 7.22450 | 35338 ft | 407 kts | 227° |
| 2026-04-24 15:35 | 52.77633 | 7.12658 | 35835 ft | 408 kts | 227° |
| 2026-04-24 15:35 | 52.73557 | 7.06137 | 36100 ft | 408 kts | 227° |
| 2026-04-24 15:35 | 52.71545 | 7.02914 | 36218 ft | 409 kts | 227° |
| 2026-04-24 15:36 | 52.69502 | 6.99640 | 36234 ft | 409 kts | 227° |
| 2026-04-24 15:36 | 52.63363 | 6.89842 | 36234 ft | 410 kts | 227° |
| 2026-04-24 15:37 | 52.59258 | 6.83342 | 36238 ft | 409 kts | 227° |
| 2026-04-24 15:37 | 52.55149 | 6.76863 | 36242 ft | 410 kts | 227° |
| 2026-04-24 15:38 | 52.51024 | 6.70352 | 36245 ft | 411 kts | 227° |
| 2026-04-24 15:38 | 52.46905 | 6.63856 | 36242 ft | 411 kts | 227° |
| 2026-04-24 15:39 | 52.42772 | 6.57371 | 36243 ft | 411 kts | 227° |
| 2026-04-24 15:39 | 52.38645 | 6.50909 | 36246 ft | 410 kts | 227° |
| 2026-04-24 15:40 | 52.34511 | 6.44459 | 36224 ft | 411 kts | 226° |
| 2026-04-24 15:40 | 52.30391 | 6.38049 | 36228 ft | 412 kts | 226° |
| 2026-04-24 15:41 | 52.26240 | 6.31609 | 36240 ft | 412 kts | 226° |
| 2026-04-24 15:41 | 52.22082 | 6.25166 | 36240 ft | 412 kts | 226° |
| 2026-04-24 15:42 | 52.17917 | 6.18730 | 36238 ft | 412 kts | 226° |
| 2026-04-24 15:42 | 52.13749 | 6.12322 | 36239 ft | 412 kts | 226° |
| 2026-04-24 15:43 | 52.09582 | 6.05920 | 36221 ft | 412 kts | 226° |
| 2026-04-24 15:43 | 52.05398 | 5.99504 | 36224 ft | 413 kts | 226° |
| 2026-04-24 15:44 | 52.01206 | 5.93100 | 36242 ft | 414 kts | 226° |
| 2026-04-24 15:44 | 51.97008 | 5.86700 | 36249 ft | 414 kts | 225° |
| 2026-04-24 15:45 | 51.92798 | 5.80314 | 36251 ft | 414 kts | 225° |
| 2026-04-24 15:45 | 51.88589 | 5.73939 | 36239 ft | 414 kts | 225° |
| 2026-04-24 15:46 | 51.84376 | 5.67568 | 36236 ft | 415 kts | 225° |
| 2026-04-24 15:46 | 51.80184 | 5.61233 | 36247 ft | 415 kts | 225° |
| 2026-04-24 15:47 | 51.75954 | 5.54873 | 36242 ft | 415 kts | 225° |
| 2026-04-24 15:47 | 51.71688 | 5.48488 | 36242 ft | 416 kts | 225° |
| 2026-04-24 15:48 | 51.67476 | 5.42197 | 36220 ft | 416 kts | 225° |
| 2026-04-24 15:48 | 51.63218 | 5.35859 | 36231 ft | 417 kts | 225° |
| 2026-04-24 15:49 | 51.58964 | 5.29522 | 36235 ft | 417 kts | 225° |
| 2026-04-24 15:49 | 51.54702 | 5.23197 | 36235 ft | 417 kts | 225° |
| 2026-04-24 15:50 | 51.50428 | 5.16871 | 36238 ft | 418 kts | 225° |
| 2026-04-24 15:50 | 51.46145 | 5.10560 | 36235 ft | 418 kts | 224° |
| 2026-04-24 15:51 | 51.41857 | 5.04253 | 36244 ft | 418 kts | 224° |
| 2026-04-24 15:51 | 51.37559 | 4.97936 | 36248 ft | 419 kts | 224° |
| 2026-04-24 15:52 | 51.33257 | 4.91642 | 36232 ft | 420 kts | 224° |
| 2026-04-24 15:52 | 51.28937 | 4.85330 | 36227 ft | 420 kts | 224° |
| 2026-04-24 15:53 | 51.24637 | 4.79077 | 36242 ft | 420 kts | 224° |
| 2026-04-24 15:53 | 51.20313 | 4.72804 | 36236 ft | 421 kts | 224° |
| 2026-04-24 15:54 | 51.15978 | 4.66518 | 36254 ft | 422 kts | 224° |
| 2026-04-24 15:54 | 51.11633 | 4.60225 | 36263 ft | 422 kts | 224° |
| 2026-04-24 15:55 | 51.07268 | 4.53953 | 36264 ft | 423 kts | 224° |
| 2026-04-24 15:55 | 51.02901 | 4.47701 | 36242 ft | 423 kts | 224° |
| 2026-04-24 15:56 | 50.98533 | 4.41445 | 36242 ft | 423 kts | 224° |
| 2026-04-24 15:56 | 50.94163 | 4.35196 | 36244 ft | 423 kts | 224° |
| 2026-04-24 15:57 | 50.89782 | 4.28950 | 36251 ft | 423 kts | 224° |
| 2026-04-24 15:57 | 50.85401 | 4.22712 | 36250 ft | 424 kts | 224° |
| 2026-04-24 15:58 | 50.81015 | 4.16492 | 36254 ft | 423 kts | 224° |
| 2026-04-24 15:58 | 50.76627 | 4.10287 | 36242 ft | 424 kts | 223° |
| 2026-04-24 15:59 | 50.72230 | 4.04078 | 36245 ft | 424 kts | 223° |
| 2026-04-24 15:59 | 50.67845 | 3.97913 | 36248 ft | 425 kts | 223° |
| 2026-04-24 16:00 | 50.63425 | 3.91728 | 36251 ft | 424 kts | 223° |
| 2026-04-24 16:00 | 50.58994 | 3.85570 | 36247 ft | 425 kts | 220° |
| 2026-04-24 16:01 | 50.53904 | 3.80864 | 36239 ft | 427 kts | 205° |
| 2026-04-24 16:01 | 50.48444 | 3.77168 | 36239 ft | 427 kts | 205° |
| 2026-04-24 16:02 | 50.42985 | 3.73462 | 36235 ft | 427 kts | 205° |
| 2026-04-24 16:02 | 50.37531 | 3.69755 | 36238 ft | 427 kts | 205° |
| 2026-04-24 16:03 | 50.32055 | 3.66044 | 36224 ft | 429 kts | 205° |
| 2026-04-24 16:03 | 50.29308 | 3.64189 | 36343 ft | 431 kts | 205° |
| 2026-04-24 16:03 | 50.26547 | 3.62327 | 36499 ft | 432 kts | 205° |
| 2026-04-24 16:04 | 50.23827 | 3.60363 | 36670 ft | 431 kts | 208° |
| 2026-04-24 16:04 | 50.21157 | 3.58237 | 36838 ft | 431 kts | 209° |
| 2026-04-24 16:04 | 50.18525 | 3.56012 | 37010 ft | 430 kts | 210° |
| 2026-04-24 16:04 | 50.15909 | 3.53754 | 37191 ft | 430 kts | 210° |
| 2026-04-24 16:05 | 50.08025 | 3.47098 | 37228 ft | 428 kts | 209° |
| 2026-04-24 16:06 | 50.00135 | 3.40676 | 37223 ft | 429 kts | 208° |
| 2026-04-24 16:07 | 49.92207 | 3.34244 | 37225 ft | 429 kts | 209° |
| 2026-04-24 16:07 | 49.84279 | 3.27805 | 37219 ft | 429 kts | 208° |
| 2026-04-24 16:08 | 49.77244 | 3.22101 | 37217 ft | 429 kts | 208° |
| 2026-04-24 16:09 | 49.69282 | 3.15684 | 37203 ft | 428 kts | 208° |
| 2026-04-24 16:09 | 49.64029 | 3.11468 | 37197 ft | 429 kts | 208° |
| 2026-04-24 16:11 | 49.50741 | 3.00851 | 37201 ft | 431 kts | 208° |
| 2026-04-24 16:11 | 49.45417 | 2.96611 | 37189 ft | 432 kts | 207° |
| 2026-04-24 16:12 | 49.37409 | 2.90268 | 37198 ft | 431 kts | 207° |
| 2026-04-24 16:13 | 49.29400 | 2.83961 | 37210 ft | 431 kts | 207° |
| 2026-04-24 16:14 | 49.18768 | 2.75576 | 37196 ft | 431 kts | 207° |
| 2026-04-24 16:14 | 49.10753 | 2.69319 | 37193 ft | 431 kts | 207° |
| 2026-04-24 16:15 | 49.02727 | 2.63077 | 37193 ft | 432 kts | 206° |
| 2026-04-24 16:16 | 48.94753 | 2.56507 | 37168 ft | 436 kts | 213° |
| 2026-04-24 16:17 | 48.81987 | 2.43842 | 37154 ft | 439 kts | 212° |
| 2026-04-24 16:18 | 48.71750 | 2.33761 | 37158 ft | 440 kts | 213° |
| 2026-04-24 16:19 | 48.64041 | 2.26213 | 37161 ft | 440 kts | 212° |
| 2026-04-24 16:20 | 48.56134 | 2.19298 | 37159 ft | 440 kts | 199° |
| 2026-04-24 16:20 | 48.47203 | 2.16077 | 37153 ft | 441 kts | 192° |
| 2026-04-24 16:21 | 48.38176 | 2.13166 | 37132 ft | 444 kts | 192° |
| 2026-04-24 16:22 | 48.32115 | 2.11215 | 37127 ft | 446 kts | 192° |
| 2026-04-24 16:22 | 48.25939 | 2.10547 | 37126 ft | 447 kts | 174° |
| 2026-04-24 16:22 | 48.22851 | 2.11148 | 37130 ft | 447 kts | 172° |
| 2026-04-24 16:23 | 48.16676 | 2.12459 | 37132 ft | 449 kts | 172° |
| 2026-04-24 16:24 | 48.07327 | 2.12000 | 37143 ft | 451 kts | 187° |
| 2026-04-24 16:24 | 48.01105 | 2.10743 | 37147 ft | 451 kts | 193° |
| 2026-04-24 16:24 | 47.98156 | 2.09212 | 37154 ft | 450 kts | 207° |
| 2026-04-24 16:25 | 47.95414 | 2.07061 | 37152 ft | 450 kts | 208° |
| 2026-04-24 16:25 | 47.89880 | 2.02640 | 37150 ft | 452 kts | 208° |
| 2026-04-24 16:26 | 47.81562 | 1.95989 | 37145 ft | 452 kts | 208° |
| 2026-04-24 16:27 | 47.73214 | 1.89361 | 37107 ft | 454 kts | 208° |
| 2026-04-24 16:27 | 47.67628 | 1.84965 | 37105 ft | 454 kts | 208° |
| 2026-04-24 16:28 | 47.62012 | 1.80651 | 37096 ft | 455 kts | 209° |
| 2026-04-24 16:28 | 47.53597 | 1.74283 | 37098 ft | 455 kts | 208° |
| 2026-04-24 16:29 | 47.47963 | 1.70018 | 37105 ft | 454 kts | 209° |
| 2026-04-24 16:30 | 47.36699 | 1.61483 | 37091 ft | 454 kts | 209° |
| 2026-04-24 16:30 | 47.31085 | 1.57237 | 37109 ft | 453 kts | 209° |
| 2026-04-24 16:31 | 47.25515 | 1.53043 | 37114 ft | 452 kts | 209° |
| 2026-04-24 16:31 | 47.19905 | 1.48839 | 37123 ft | 452 kts | 209° |
| 2026-04-24 16:32 | 47.14304 | 1.44647 | 37120 ft | 451 kts | 209° |
| 2026-04-24 16:32 | 47.08712 | 1.40475 | 37128 ft | 451 kts | 209° |
| 2026-04-24 16:33 | 47.03126 | 1.36302 | 37122 ft | 450 kts | 209° |
| 2026-04-24 16:33 | 46.97548 | 1.32154 | 37119 ft | 449 kts | 209° |
| 2026-04-24 16:34 | 46.91977 | 1.28019 | 37130 ft | 448 kts | 209° |
| 2026-04-24 16:34 | 46.86417 | 1.23904 | 37125 ft | 447 kts | 209° |
| 2026-04-24 16:35 | 46.80871 | 1.19814 | 37115 ft | 446 kts | 209° |
| 2026-04-24 16:35 | 46.75333 | 1.15730 | 37116 ft | 445 kts | 209° |
| 2026-04-24 16:36 | 46.69845 | 1.11686 | 37108 ft | 444 kts | 209° |
| 2026-04-24 16:36 | 46.64320 | 1.07641 | 37106 ft | 444 kts | 209° |
| 2026-04-24 16:37 | 46.58802 | 1.03606 | 37102 ft | 444 kts | 209° |
| 2026-04-24 16:37 | 46.53287 | 0.99586 | 37097 ft | 443 kts | 209° |
| 2026-04-24 16:38 | 46.47784 | 0.95590 | 37106 ft | 442 kts | 209° |
| 2026-04-24 16:38 | 46.42290 | 0.91583 | 37106 ft | 441 kts | 209° |
| 2026-04-24 16:39 | 46.36804 | 0.87591 | 37104 ft | 441 kts | 209° |
| 2026-04-24 16:39 | 46.31362 | 0.83657 | 37103 ft | 440 kts | 208° |
| 2026-04-24 16:40 | 46.25898 | 0.79718 | 37091 ft | 439 kts | 208° |
| 2026-04-24 16:40 | 46.20440 | 0.75786 | 37094 ft | 438 kts | 208° |
| 2026-04-24 16:41 | 46.14993 | 0.71870 | 37097 ft | 437 kts | 208° |
| 2026-04-24 16:41 | 46.09537 | 0.67972 | 37094 ft | 436 kts | 208° |
| 2026-04-24 16:42 | 46.04104 | 0.64082 | 37095 ft | 435 kts | 208° |
| 2026-04-24 16:42 | 45.98686 | 0.60207 | 37090 ft | 435 kts | 208° |
| 2026-04-24 16:43 | 45.93268 | 0.56346 | 37090 ft | 434 kts | 208° |
| 2026-04-24 16:43 | 45.87857 | 0.52501 | 37093 ft | 434 kts | 208° |
| 2026-04-24 16:44 | 45.82450 | 0.48659 | 37097 ft | 434 kts | 208° |
| 2026-04-24 16:44 | 45.77037 | 0.44834 | 37091 ft | 433 kts | 207° |
| 2026-04-24 16:45 | 45.71634 | 0.41018 | 37090 ft | 433 kts | 208° |
| 2026-04-24 16:45 | 45.66272 | 0.37239 | 37084 ft | 432 kts | 207° |
| 2026-04-24 16:46 | 45.60876 | 0.33454 | 37085 ft | 431 kts | 207° |
| 2026-04-24 16:46 | 45.55493 | 0.29673 | 37072 ft | 431 kts | 207° |
| 2026-04-24 16:47 | 45.50112 | 0.25917 | 37085 ft | 430 kts | 207° |
| 2026-04-24 16:47 | 45.44730 | 0.22158 | 37077 ft | 430 kts | 207° |
| 2026-04-24 16:48 | 45.39406 | 0.18297 | 37080 ft | 429 kts | 208° |
| 2026-04-24 16:48 | 45.34167 | 0.14334 | 37065 ft | 429 kts | 209° |
| 2026-04-24 16:49 | 45.28890 | 0.10353 | 37063 ft | 429 kts | 208° |
| 2026-04-24 16:49 | 45.23605 | 0.06431 | 37065 ft | 428 kts | 208° |
| 2026-04-24 16:50 | 45.18320 | 0.02525 | 37054 ft | 428 kts | 208° |
| 2026-04-24 16:50 | 45.13045 | -0.01380 | 37065 ft | 428 kts | 208° |
| 2026-04-24 16:51 | 45.07768 | -0.05285 | 37065 ft | 427 kts | 208° |
| 2026-04-24 16:51 | 45.02490 | -0.09160 | 37056 ft | 427 kts | 208° |
| 2026-04-24 16:52 | 44.97211 | -0.13018 | 37053 ft | 427 kts | 208° |
| 2026-04-24 16:52 | 44.91939 | -0.16882 | 37056 ft | 427 kts | 208° |
| 2026-04-24 16:53 | 44.86671 | -0.20729 | 37056 ft | 426 kts | 208° |
| 2026-04-24 16:53 | 44.81403 | -0.24573 | 37056 ft | 426 kts | 208° |
| 2026-04-24 16:54 | 44.76171 | -0.28390 | 37055 ft | 426 kts | 208° |
| 2026-04-24 16:54 | 44.70892 | -0.32220 | 37053 ft | 426 kts | 207° |
| 2026-04-24 16:55 | 44.65627 | -0.36025 | 37050 ft | 425 kts | 207° |
| 2026-04-24 16:55 | 44.60365 | -0.39828 | 37044 ft | 425 kts | 207° |
| 2026-04-24 16:56 | 44.55989 | -0.42986 | 37042 ft | 425 kts | 207° |
| 2026-04-24 16:56 | 44.50724 | -0.46784 | 37046 ft | 425 kts | 207° |
| 2026-04-24 16:57 | 44.45455 | -0.50573 | 37050 ft | 425 kts | 207° |
| 2026-04-24 16:57 | 44.40179 | -0.54358 | 37050 ft | 426 kts | 207° |
| 2026-04-24 16:58 | 44.34898 | -0.58131 | 37050 ft | 425 kts | 207° |
| 2026-04-24 16:58 | 44.29629 | -0.61893 | 37060 ft | 426 kts | 207° |
| 2026-04-24 16:59 | 44.24391 | -0.65634 | 37060 ft | 425 kts | 207° |
| 2026-04-24 17:00 | 44.16487 | -0.71256 | 37055 ft | 425 kts | 207° |
| 2026-04-24 17:00 | 44.08583 | -0.76857 | 37066 ft | 425 kts | 207° |
| 2026-04-24 17:01 | 44.00680 | -0.82440 | 37067 ft | 425 kts | 207° |
| 2026-04-24 17:02 | 43.92768 | -0.88021 | 37067 ft | 425 kts | 207° |
| 2026-04-24 17:02 | 43.87494 | -0.91730 | 37074 ft | 425 kts | 207° |
| 2026-04-24 17:03 | 43.79578 | -0.97276 | 37081 ft | 425 kts | 207° |
| 2026-04-24 17:04 | 43.74295 | -1.00968 | 37081 ft | 426 kts | 207° |
| 2026-04-24 17:04 | 43.66366 | -1.06505 | 37081 ft | 425 kts | 207° |
| 2026-04-24 17:05 | 43.61082 | -1.10187 | 37081 ft | 425 kts | 206° |
| 2026-04-24 17:06 | 43.53172 | -1.15677 | 37095 ft | 426 kts | 206° |
| 2026-04-24 17:06 | 43.45223 | -1.21175 | 37103 ft | 426 kts | 206° |
| 2026-04-24 17:07 | 43.39921 | -1.24834 | 37108 ft | 427 kts | 206° |
| 2026-04-24 17:08 | 43.29311 | -1.32149 | 37112 ft | 426 kts | 206° |
| 2026-04-24 17:08 | 43.23994 | -1.35801 | 37108 ft | 426 kts | 206° |
| 2026-04-24 17:09 | 43.13374 | -1.43064 | 37100 ft | 427 kts | 206° |
| 2026-04-24 17:10 | 43.02775 | -1.50297 | 37089 ft | 427 kts | 206° |
| 2026-04-24 17:12 | 42.81549 | -1.64686 | 37098 ft | 425 kts | 206° |